sensor_id;sensor_type;location;lat;lon;timestamp;pressure;altitude;pressure_sealevel;temperature;humidity
10476;BME280;26166;48.264;11.436;2023-04-06T00:00:26;96431.94;;;9.56;37.58
10476;BME280;26166;48.264;11.436;2023-04-06T00:03:26;96428.03;;;9.60;37.37
10476;BME280;26166;48.264;11.436;2023-04-06T00:06:27;96426.09;;;9.62;37.80
10476;BME280;26166;48.264;11.436;2023-04-06T00:09:27;96421.66;;;9.63;37.46
10476;BME280;26166;48.264;11.436;2023-04-06T00:12:27;96420.84;;;9.62;37.38
10476;BME280;26166;48.264;11.436;2023-04-06T00:15:27;96422.66;;;9.62;37.40
10476;BME280;26166;48.264;11.436;2023-04-06T00:18:28;96419.22;;;9.61;37.28
10476;BME280;26166;48.264;11.436;2023-04-06T00:21:28;96416.72;;;9.59;37.68
10476;BME280;26166;48.264;11.436;2023-04-06T00:24:28;96419.22;;;9.61;37.50
10476;BME280;26166;48.264;11.436;2023-04-06T00:27:28;96420.97;;;9.60;37.66
10476;BME280;26166;48.264;11.436;2023-04-06T00:30:28;96420.34;;;9.58;37.76
10476;BME280;26166;48.264;11.436;2023-04-06T00:33:29;96425.56;;;9.58;37.92
10476;BME280;26166;48.264;11.436;2023-04-06T00:36:29;96423.94;;;9.57;37.67
10476;BME280;26166;48.264;11.436;2023-04-06T00:39:29;96418.53;;;9.59;37.52
10476;BME280;26166;48.264;11.436;2023-04-06T00:42:30;96417.72;;;9.58;37.48
10476;BME280;26166;48.264;11.436;2023-04-06T00:45:30;96414.91;;;9.60;37.49
10476;BME280;26166;48.264;11.436;2023-04-06T00:48:30;96410.66;;;9.59;37.32
10476;BME280;26166;48.264;11.436;2023-04-06T00:51:31;96413.28;;;9.59;37.33
10476;BME280;26166;48.264;11.436;2023-04-06T00:54:31;96412.63;;;9.57;37.68
10476;BME280;26166;48.264;11.436;2023-04-06T00:57:32;96410.84;;;9.57;37.48
10476;BME280;26166;48.264;11.436;2023-04-06T01:00:32;96412.63;;;9.57;37.71
10476;BME280;26166;48.264;11.436;2023-04-06T01:03:32;96417.06;;;9.56;37.54
10476;BME280;26166;48.264;11.436;2023-04-06T01:06:32;96422.31;;;9.56;37.32
10476;BME280;26166;48.264;11.436;2023-04-06T01:09:32;96412.47;;;9.58;37.34
10476;BME280;26166;48.264;11.436;2023-04-06T01:12:33;96413.97;;;9.61;37.49
10476;BME280;26166;48.264;11.436;2023-04-06T01:15:33;96406.75;;;9.63;37.30
10476;BME280;26166;48.264;11.436;2023-04-06T01:18:33;96415.59;;;9.62;37.33
10476;BME280;26166;48.264;11.436;2023-04-06T01:21:33;96411.34;;;9.61;37.53
10476;BME280;26166;48.264;11.436;2023-04-06T01:24:34;96414.78;;;9.62;37.56
10476;BME280;26166;48.264;11.436;2023-04-06T01:27:34;96408.72;;;9.61;37.51
10476;BME280;26166;48.264;11.436;2023-04-06T01:30:34;96403.47;;;9.61;37.42
10476;BME280;26166;48.264;11.436;2023-04-06T01:33:35;96407.06;;;9.60;37.22
10476;BME280;26166;48.264;11.436;2023-04-06T01:36:35;96397.38;;;9.60;37.26
10476;BME280;26166;48.264;11.436;2023-04-06T01:39:35;96399.69;;;9.64;37.15
10476;BME280;26166;48.264;11.436;2023-04-06T01:42:35;96393.47;;;9.65;36.92
10476;BME280;26166;48.264;11.436;2023-04-06T01:45:36;96399.56;;;9.65;37.12
10476;BME280;26166;48.264;11.436;2023-04-06T01:48:36;96391.69;;;9.65;36.89
10476;BME280;26166;48.264;11.436;2023-04-06T01:51:36;96388.91;;;9.67;37.06
10476;BME280;26166;48.264;11.436;2023-04-06T01:54:36;96388.75;;;9.68;36.94
10476;BME280;26166;48.264;11.436;2023-04-06T01:57:37;96386.78;;;9.70;37.00
10476;BME280;26166;48.264;11.436;2023-04-06T02:00:37;96391.69;;;9.73;36.90
10476;BME280;26166;48.264;11.436;2023-04-06T02:03:37;96391.69;;;9.73;37.15
10476;BME280;26166;48.264;11.436;2023-04-06T02:06:37;96390.88;;;9.73;37.07
10476;BME280;26166;48.264;11.436;2023-04-06T02:09:37;96396.31;;;9.71;36.97
10476;BME280;26166;48.264;11.436;2023-04-06T02:12:38;96393.84;;;9.70;37.04
10476;BME280;26166;48.264;11.436;2023-04-06T02:15:38;96387.09;;;9.67;37.12
10476;BME280;26166;48.264;11.436;2023-04-06T02:18:38;96388.09;;;9.66;37.17
10476;BME280;26166;48.264;11.436;2023-04-06T02:21:38;96385.47;;;9.66;36.94
10476;BME280;26166;48.264;11.436;2023-04-06T02:24:38;96385.78;;;9.63;37.00
10476;BME280;26166;48.264;11.436;2023-04-06T02:27:39;96380.53;;;9.63;37.11
10476;BME280;26166;48.264;11.436;2023-04-06T02:30:39;96381.50;;;9.62;37.03
10476;BME280;26166;48.264;11.436;2023-04-06T02:33:39;96389.38;;;9.62;36.99
10476;BME280;26166;48.264;11.436;2023-04-06T02:36:39;96384.13;;;9.62;36.93
10476;BME280;26166;48.264;11.436;2023-04-06T02:39:41;96382.50;;;9.61;36.96
10476;BME280;26166;48.264;11.436;2023-04-06T02:42:41;96385.13;;;9.61;37.19
10476;BME280;26166;48.264;11.436;2023-04-06T02:45:41;96386.75;;;9.62;36.99
10476;BME280;26166;48.264;11.436;2023-04-06T02:48:41;96379.72;;;9.63;36.90
10476;BME280;26166;48.264;11.436;2023-04-06T02:51:41;96374.47;;;9.63;36.99
10476;BME280;26166;48.264;11.436;2023-04-06T02:54:42;96373.63;;;9.62;37.10
10476;BME280;26166;48.264;11.436;2023-04-06T02:57:42;96372.81;;;9.62;37.17
10476;BME280;26166;48.264;11.436;2023-04-06T03:00:42;96373.63;;;9.62;37.01
10476;BME280;26166;48.264;11.436;2023-04-06T03:03:42;96372.00;;;9.61;37.11
10476;BME280;26166;48.264;11.436;2023-04-06T03:06:43;96377.25;;;9.61;36.98
10476;BME280;26166;48.264;11.436;2023-04-06T03:09:43;96379.88;;;9.61;36.96
10476;BME280;26166;48.264;11.436;2023-04-06T03:12:43;96380.81;;;9.60;37.03
10476;BME280;26166;48.264;11.436;2023-04-06T03:15:43;96383.44;;;9.60;36.92
10476;BME280;26166;48.264;11.436;2023-04-06T03:18:43;96375.91;;;9.57;37.02
10476;BME280;26166;48.264;11.436;2023-04-06T03:21:45;96374.25;;;9.56;37.04
10476;BME280;26166;48.264;11.436;2023-04-06T03:24:45;96369.84;;;9.56;37.12
10476;BME280;26166;48.264;11.436;2023-04-06T03:27:45;96372.31;;;9.58;36.97
10476;BME280;26166;48.264;11.436;2023-04-06T03:30:46;96374.13;;;9.57;36.80
10476;BME280;26166;48.264;11.436;2023-04-06T03:33:46;96373.28;;;9.57;36.92
10476;BME280;26166;48.264;11.436;2023-04-06T03:36:46;96381.31;;;9.55;36.86
10476;BME280;26166;48.264;11.436;2023-04-06T03:39:46;96383.09;;;9.55;37.17
10476;BME280;26166;48.264;11.436;2023-04-06T03:42:46;96383.09;;;9.55;37.00
10476;BME280;26166;48.264;11.436;2023-04-06T03:45:47;96385.72;;;9.55;37.11
10476;BME280;26166;48.264;11.436;2023-04-06T03:48:48;96392.47;;;9.57;36.95
10476;BME280;26166;48.264;11.436;2023-04-06T03:51:48;96388.03;;;9.58;37.02
10476;BME280;26166;48.264;11.436;2023-04-06T03:54:48;96389.69;;;9.59;36.95
10476;BME280;26166;48.264;11.436;2023-04-06T03:57:49;96389.69;;;9.59;36.82
10476;BME280;26166;48.264;11.436;2023-04-06T04:00:49;96391.66;;;9.57;36.94
10476;BME280;26166;48.264;11.436;2023-04-06T04:03:49;96396.91;;;9.57;37.15
10476;BME280;26166;48.264;11.436;2023-04-06T04:06:50;96404.91;;;9.55;37.08
10476;BME280;26166;48.264;11.436;2023-04-06T04:09:50;96398.03;;;9.54;37.07
10476;BME280;26166;48.264;11.436;2023-04-06T04:12:50;96402.28;;;9.55;37.22
10476;BME280;26166;48.264;11.436;2023-04-06T04:15:51;96407.69;;;9.54;37.14
10476;BME280;26166;48.264;11.436;2023-04-06T04:18:51;96401.63;;;9.53;37.06
10476;BME280;26166;48.264;11.436;2023-04-06T04:21:51;96404.41;;;9.52;37.10
10476;BME280;26166;48.264;11.436;2023-04-06T04:24:51;96403.25;;;9.54;37.17
10476;BME280;26166;48.264;11.436;2023-04-06T04:27:51;96406.72;;;9.55;37.24
10476;BME280;26166;48.264;11.436;2023-04-06T04:30:52;96407.94;;;9.43;37.13
10476;BME280;26166;48.264;11.436;2023-04-06T04:33:52;96405.72;;;9.22;37.59
10476;BME280;26166;48.264;11.436;2023-04-06T04:36:52;96414.34;;;9.14;37.91
10476;BME280;26166;48.264;11.436;2023-04-06T04:39:52;96410.91;;;9.14;38.03
10476;BME280;26166;48.264;11.436;2023-04-06T04:42:52;96416.66;;;9.17;37.78
10476;BME280;26166;48.264;11.436;2023-04-06T04:45:52;96415.50;;;9.20;37.72
10476;BME280;26166;48.264;11.436;2023-04-06T04:48:53;96412.59;;;9.23;37.54
10476;BME280;26166;48.264;11.436;2023-04-06T04:51:53;96409.69;;;9.26;37.68
10476;BME280;26166;48.264;11.436;2023-04-06T04:54:53;96409.50;;;9.27;37.47
10476;BME280;26166;48.264;11.436;2023-04-06T04:57:53;96406.72;;;9.29;37.41
10476;BME280;26166;48.264;11.436;2023-04-06T05:00:54;96412.66;;;9.31;37.52
10476;BME280;26166;48.264;11.436;2023-04-06T05:03:54;96409.88;;;9.32;37.42
10476;BME280;26166;48.264;11.436;2023-04-06T05:07:07;96411.66;;;9.32;37.44
10476;BME280;26166;48.264;11.436;2023-04-06T05:10:07;96413.47;;;9.31;37.47
10476;BME280;26166;48.264;11.436;2023-04-06T05:13:08;96404.63;;;9.32;37.42
10476;BME280;26166;48.264;11.436;2023-04-06T05:16:08;96406.41;;;9.32;37.41
10476;BME280;26166;48.264;11.436;2023-04-06T05:19:08;96415.78;;;9.34;37.54
10476;BME280;26166;48.264;11.436;2023-04-06T05:22:09;96420.19;;;9.34;37.71
10476;BME280;26166;48.264;11.436;2023-04-06T05:25:09;96422.00;;;9.33;37.50
10476;BME280;26166;48.264;11.436;2023-04-06T05:28:09;96422.81;;;9.34;37.55
10476;BME280;26166;48.264;11.436;2023-04-06T05:31:10;96420.19;;;9.34;37.55
10476;BME280;26166;48.264;11.436;2023-04-06T05:34:10;96427.09;;;9.35;37.78
10476;BME280;26166;48.264;11.436;2023-04-06T05:37:10;96424.47;;;9.35;37.77
10476;BME280;26166;48.264;11.436;2023-04-06T05:40:10;96418.41;;;9.34;37.79
10476;BME280;26166;48.264;11.436;2023-04-06T05:43:10;96423.31;;;9.38;37.92
10476;BME280;26166;48.264;11.436;2023-04-06T05:46:11;96422.50;;;9.37;37.83
10476;BME280;26166;48.264;11.436;2023-04-06T05:49:11;96424.16;;;9.38;37.96
10476;BME280;26166;48.264;11.436;2023-04-06T05:52:12;96423.31;;;9.38;38.00
10476;BME280;26166;48.264;11.436;2023-04-06T05:55:12;96429.38;;;9.38;37.92
10476;BME280;26166;48.264;11.436;2023-04-06T05:58:12;96433.69;;;9.39;38.21
10476;BME280;26166;48.264;11.436;2023-04-06T06:01:12;96428.44;;;9.39;38.12
10476;BME280;26166;48.264;11.436;2023-04-06T06:04:13;96425.00;;;9.39;37.86
10476;BME280;26166;48.264;11.436;2023-04-06T06:07:14;96432.84;;;9.39;37.89
10476;BME280;26166;48.264;11.436;2023-04-06T06:10:14;96440.84;;;9.37;37.77
10476;BME280;26166;48.264;11.436;2023-04-06T06:13:14;96434.78;;;9.37;37.92
10476;BME280;26166;48.264;11.436;2023-04-06T06:16:15;96426.13;;;9.36;37.80
10476;BME280;26166;48.264;11.436;2023-04-06T06:19:15;96427.75;;;9.37;38.03
10476;BME280;26166;48.264;11.436;2023-04-06T06:22:15;96427.75;;;9.37;38.01
10476;BME280;26166;48.264;11.436;2023-04-06T06:25:15;96427.91;;;9.35;37.88
10476;BME280;26166;48.264;11.436;2023-04-06T06:28:16;96430.38;;;9.37;37.89
10476;BME280;26166;48.264;11.436;2023-04-06T06:31:16;96435.47;;;9.39;37.83
10476;BME280;26166;48.264;11.436;2023-04-06T06:34:16;96429.25;;;9.40;37.76
10476;BME280;26166;48.264;11.436;2023-04-06T06:37:17;96426.63;;;9.40;37.64
10476;BME280;26166;48.264;11.436;2023-04-06T06:40:17;96429.09;;;9.41;37.57
10476;BME280;26166;48.264;11.436;2023-04-06T06:43:17;96427.97;;;9.44;37.38
10476;BME280;26166;48.264;11.436;2023-04-06T06:46:18;96425.19;;;9.45;37.33
10476;BME280;26166;48.264;11.436;2023-04-06T06:49:18;96427.63;;;9.47;37.20
10476;BME280;26166;48.264;11.436;2023-04-06T06:52:18;96430.94;;;9.49;37.33
10476;BME280;26166;48.264;11.436;2023-04-06T06:55:18;96426.50;;;9.49;37.29
10476;BME280;26166;48.264;11.436;2023-04-06T06:58:19;96429.13;;;9.49;37.31
10476;BME280;26166;48.264;11.436;2023-04-06T07:01:20;96427.34;;;9.50;37.33
10476;BME280;26166;48.264;11.436;2023-04-06T07:04:20;96430.13;;;9.48;37.18
10476;BME280;26166;48.264;11.436;2023-04-06T07:07:20;96444.06;;;9.49;37.41
10476;BME280;26166;48.264;11.436;2023-04-06T07:10:20;96437.81;;;9.50;37.35
10476;BME280;26166;48.264;11.436;2023-04-06T07:13:20;96441.25;;;9.50;37.39
10476;BME280;26166;48.264;11.436;2023-04-06T07:16:23;96442.09;;;9.51;37.24
10476;BME280;26166;48.264;11.436;2023-04-06T07:19:23;96442.78;;;9.53;37.61
10476;BME280;26166;48.264;11.436;2023-04-06T07:22:23;96444.41;;;9.54;37.57
10476;BME280;26166;48.264;11.436;2023-04-06T07:25:23;96442.44;;;9.56;37.59
10476;BME280;26166;48.264;11.436;2023-04-06T07:28:23;96441.47;;;9.57;37.59
10476;BME280;26166;48.264;11.436;2023-04-06T07:31:23;96438.69;;;9.58;37.57
10476;BME280;26166;48.264;11.436;2023-04-06T07:34:24;96447.22;;;9.60;37.50
10476;BME280;26166;48.264;11.436;2023-04-06T07:37:24;96447.72;;;9.64;37.73
10476;BME280;26166;48.264;11.436;2023-04-06T07:40:25;96444.16;;;9.65;37.44
10476;BME280;26166;48.264;11.436;2023-04-06T07:43:26;96445.78;;;9.66;37.60
10476;BME280;26166;48.264;11.436;2023-04-06T07:46:26;96442.19;;;9.67;37.58
10476;BME280;26166;48.264;11.436;2023-04-06T07:49:26;96441.19;;;9.68;37.87
10476;BME280;26166;48.264;11.436;2023-04-06T07:52:26;96451.56;;;9.70;37.76
10476;BME280;26166;48.264;11.436;2023-04-06T07:55:26;96445.16;;;9.72;37.84
10476;BME280;26166;48.264;11.436;2023-04-06T07:58:27;96447.47;;;9.75;37.78
10476;BME280;26166;48.264;11.436;2023-04-06T08:01:27;96447.31;;;9.77;37.94
10476;BME280;26166;48.264;11.436;2023-04-06T08:04:27;96442.56;;;9.80;37.60
10476;BME280;26166;48.264;11.436;2023-04-06T08:07:28;96437.63;;;9.77;37.78
10476;BME280;26166;48.264;11.436;2023-04-06T08:10:28;96441.41;;;9.75;38.02
10476;BME280;26166;48.264;11.436;2023-04-06T08:13:28;96443.03;;;9.76;38.08
10476;BME280;26166;48.264;11.436;2023-04-06T08:16:28;96437.63;;;9.77;38.25
10476;BME280;26166;48.264;11.436;2023-04-06T08:19:29;96442.75;;;9.79;38.04
10476;BME280;26166;48.264;11.436;2023-04-06T08:22:29;96439.94;;;9.80;38.08
10476;BME280;26166;48.264;11.436;2023-04-06T08:25:30;96443.56;;;9.79;38.30
10476;BME280;26166;48.264;11.436;2023-04-06T08:28:30;96441.91;;;9.78;37.97
10476;BME280;26166;48.264;11.436;2023-04-06T08:31:30;96438.97;;;9.81;37.91
10476;BME280;26166;48.264;11.436;2023-04-06T08:34:31;96446.53;;;9.84;37.98
10476;BME280;26166;48.264;11.436;2023-04-06T08:37:32;96435.38;;;9.91;37.63
10476;BME280;26166;48.264;11.436;2023-04-06T08:40:36;96439.69;;;9.92;37.72
10476;BME280;26166;48.264;11.436;2023-04-06T08:43:38;96436.22;;;9.91;37.76
10476;BME280;26166;48.264;11.436;2023-04-06T08:46:41;96434.44;;;9.92;37.75
10476;BME280;26166;48.264;11.436;2023-04-06T08:49:41;96436.38;;;9.90;37.58
10476;BME280;26166;48.264;11.436;2023-04-06T08:52:43;96438.69;;;9.93;37.31
10476;BME280;26166;48.264;11.436;2023-04-06T08:55:43;96448.03;;;9.95;37.63
10476;BME280;26166;48.264;11.436;2023-04-06T08:58:43;96444.13;;;9.99;37.06
10476;BME280;26166;48.264;11.436;2023-04-06T09:01:44;96446.44;;;10.02;37.15
10476;BME280;26166;48.264;11.436;2023-04-06T09:04:46;96441.00;;;10.04;37.09
10476;BME280;26166;48.264;11.436;2023-04-06T09:07:47;96439.53;;;10.01;37.09
10476;BME280;26166;48.264;11.436;2023-04-06T09:10:47;96439.69;;;10.00;37.29
10476;BME280;26166;48.264;11.436;2023-04-06T09:13:49;96437.75;;;10.02;37.27
10476;BME280;26166;48.264;11.436;2023-04-06T09:16:49;96430.84;;;10.09;37.27
10476;BME280;26166;48.264;11.436;2023-04-06T09:19:50;96438.13;;;10.15;37.05
10476;BME280;26166;48.264;11.436;2023-04-06T09:22:50;96434.50;;;10.16;36.85
10476;BME280;26166;48.264;11.436;2023-04-06T09:25:50;96437.81;;;10.18;36.87
10476;BME280;26166;48.264;11.436;2023-04-06T09:28:52;96434.16;;;10.11;36.95
10476;BME280;26166;48.264;11.436;2023-04-06T09:32:01;96432.19;;;10.05;36.94
10476;BME280;26166;48.264;11.436;2023-04-06T09:35:05;96428.56;;;10.06;36.56
10476;BME280;26166;48.264;11.436;2023-04-06T09:38:10;96427.59;;;10.07;36.73
10476;BME280;26166;48.264;11.436;2023-04-06T09:41:10;96419.06;;;10.05;36.47
10476;BME280;26166;48.264;11.436;2023-04-06T09:44:11;96424.81;;;10.17;36.38
10476;BME280;26166;48.264;11.436;2023-04-06T09:47:12;96417.16;;;10.23;35.56
10476;BME280;26166;48.264;11.436;2023-04-06T09:50:13;96415.53;;;10.30;35.51
10476;BME280;26166;48.264;11.436;2023-04-06T09:53:13;96418.19;;;10.39;34.95
10476;BME280;26166;48.264;11.436;2023-04-06T09:56:16;96412.63;;;10.42;35.22
10476;BME280;26166;48.264;11.436;2023-04-06T09:59:18;96410.63;;;10.44;34.90
10476;BME280;26166;48.264;11.436;2023-04-06T10:08:24;96408.81;;;10.44;35.06
10476;BME280;26166;48.264;11.436;2023-04-06T10:11:27;96406.69;;;10.48;34.61
10476;BME280;26166;48.264;11.436;2023-04-06T10:14:28;96403.09;;;10.49;34.37
10476;BME280;26166;48.264;11.436;2023-04-06T10:17:30;96395.88;;;10.51;34.12
10476;BME280;26166;48.264;11.436;2023-04-06T10:20:40;96395.88;;;10.51;34.04
10476;BME280;26166;48.264;11.436;2023-04-06T10:23:46;96394.25;;;10.50;34.29
10476;BME280;26166;48.264;11.436;2023-04-06T10:26:57;96393.25;;;10.51;34.22
10476;BME280;26166;48.264;11.436;2023-04-06T10:30:04;96404.06;;;10.48;34.80
10476;BME280;26166;48.264;11.436;2023-04-06T10:33:14;96391.28;;;10.45;34.38
10476;BME280;26166;48.264;11.436;2023-04-06T10:36:21;96392.94;;;10.46;34.41
10476;BME280;26166;48.264;11.436;2023-04-06T10:39:24;96387.81;;;10.44;34.48
10476;BME280;26166;48.264;11.436;2023-04-06T10:42:24;96385.38;;;10.43;34.68
10476;BME280;26166;48.264;11.436;2023-04-06T10:45:25;96386.03;;;10.45;34.43
10476;BME280;26166;48.264;11.436;2023-04-06T10:48:36;96388.66;;;10.45;34.61
10476;BME280;26166;48.264;11.436;2023-04-06T10:51:37;96379.94;;;10.44;34.19
10476;BME280;26166;48.264;11.436;2023-04-06T10:54:40;96379.94;;;10.44;34.29
10476;BME280;26166;48.264;11.436;2023-04-06T10:57:41;96376.19;;;10.47;34.04
10476;BME280;26166;48.264;11.436;2023-04-06T11:00:45;96376.81;;;10.49;33.84
10476;BME280;26166;48.264;11.436;2023-04-06T11:03:46;96370.28;;;10.45;34.17
10476;BME280;26166;48.264;11.436;2023-04-06T11:06:47;96369.44;;;10.44;33.79
10476;BME280;26166;48.264;11.436;2023-04-06T11:09:49;96366.66;;;10.46;34.12
10476;BME280;26166;48.264;11.436;2023-04-06T11:12:53;96365.66;;;10.47;34.26
10476;BME280;26166;48.264;11.436;2023-04-06T11:15:53;96354.03;;;10.49;34.39
10476;BME280;26166;48.264;11.436;2023-04-06T11:18:54;96355.50;;;10.52;33.93
10476;BME280;26166;48.264;11.436;2023-04-06T11:22:05;96352.22;;;10.50;34.36
10476;BME280;26166;48.264;11.436;2023-04-06T11:25:07;96346.97;;;10.50;34.32
10476;BME280;26166;48.264;11.436;2023-04-06T11:28:07;96343.53;;;10.49;34.16
10476;BME280;26166;48.264;11.436;2023-04-06T11:31:07;96333.84;;;10.50;34.47
10476;BME280;26166;48.264;11.436;2023-04-06T11:34:09;96344.97;;;10.52;34.45
10476;BME280;26166;48.264;11.436;2023-04-06T11:37:11;96334.47;;;10.52;34.24
10476;BME280;26166;48.264;11.436;2023-04-06T11:40:11;96326.59;;;10.52;34.19
10476;BME280;26166;48.264;11.436;2023-04-06T11:43:11;96333.16;;;10.56;33.97
10476;BME280;26166;48.264;11.436;2023-04-06T11:46:12;96333.34;;;10.54;33.79
10476;BME280;26166;48.264;11.436;2023-04-06T11:49:16;96328.91;;;10.55;33.97
10476;BME280;26166;48.264;11.436;2023-04-06T11:55:20;96326.59;;;10.52;33.90
10476;BME280;26166;48.264;11.436;2023-04-06T11:58:20;96321.53;;;10.50;34.11
10476;BME280;26166;48.264;11.436;2023-04-06T12:01:20;96327.78;;;10.49;34.18
10476;BME280;26166;48.264;11.436;2023-04-06T12:04:21;96324.28;;;10.49;33.86
10476;BME280;26166;48.264;11.436;2023-04-06T12:07:21;96326.91;;;10.49;34.03
10476;BME280;26166;48.264;11.436;2023-04-06T12:10:21;96319.03;;;10.49;33.48
10476;BME280;26166;48.264;11.436;2023-04-06T12:13:21;96312.97;;;10.48;33.39
10476;BME280;26166;48.264;11.436;2023-04-06T12:16:22;96313.78;;;10.49;33.77
10476;BME280;26166;48.264;11.436;2023-04-06T12:19:22;96308.88;;;10.46;33.71
10476;BME280;26166;48.264;11.436;2023-04-06T12:22:25;96310.84;;;10.44;33.87
10476;BME280;26166;48.264;11.436;2023-04-06T12:25:25;96304.78;;;10.43;34.08
10476;BME280;26166;48.264;11.436;2023-04-06T12:28:25;96304.28;;;10.40;34.00
10476;BME280;26166;48.264;11.436;2023-04-06T12:31:26;96302.63;;;10.39;33.97
10476;BME280;26166;48.264;11.436;2023-04-06T12:34:27;96289.50;;;10.39;34.33
10476;BME280;26166;48.264;11.436;2023-04-06T12:37:27;96298.06;;;10.41;34.08
10476;BME280;26166;48.264;11.436;2023-04-06T12:40:27;96303.94;;;10.43;34.10
10476;BME280;26166;48.264;11.436;2023-04-06T12:43:27;96291.50;;;10.45;34.24
10476;BME280;26166;48.264;11.436;2023-04-06T12:46:27;96287.88;;;10.46;33.25
10476;BME280;26166;48.264;11.436;2023-04-06T12:49:30;96287.22;;;10.44;33.24
10476;BME280;26166;48.264;11.436;2023-04-06T12:52:31;96290.66;;;10.44;33.34
10476;BME280;26166;48.264;11.436;2023-04-06T12:55:34;96286.25;;;10.45;33.46
10476;BME280;26166;48.264;11.436;2023-04-06T12:58:35;96282.44;;;10.47;33.57
10476;BME280;26166;48.264;11.436;2023-04-06T13:01:36;96276.69;;;10.52;33.58
10476;BME280;26166;48.264;11.436;2023-04-06T13:04:37;96280.00;;;10.54;33.63
10476;BME280;26166;48.264;11.436;2023-04-06T13:07:37;96290.50;;;10.54;33.89
10476;BME280;26166;48.264;11.436;2023-04-06T13:10:37;96280.97;;;10.61;33.21
10476;BME280;26166;48.264;11.436;2023-04-06T13:13:37;96279.81;;;10.72;33.16
10476;BME280;26166;48.264;11.436;2023-04-06T13:16:37;96278.31;;;10.77;32.85
10476;BME280;26166;48.264;11.436;2023-04-06T13:19:38;96267.47;;;10.80;33.35
10476;BME280;26166;48.264;11.436;2023-04-06T13:22:38;96274.00;;;10.84;33.12
10476;BME280;26166;48.264;11.436;2023-04-06T13:25:38;96258.59;;;10.90;33.28
10476;BME280;26166;48.264;11.436;2023-04-06T13:28:38;96256.28;;;10.95;32.72
10476;BME280;26166;48.264;11.436;2023-04-06T13:31:39;96253.28;;;10.98;32.74
10476;BME280;26166;48.264;11.436;2023-04-06T13:34:39;96252.31;;;10.99;32.59
10476;BME280;26166;48.264;11.436;2023-04-06T13:37:40;96251.31;;;11.00;32.76
10476;BME280;26166;48.264;11.436;2023-04-06T13:40:41;96258.88;;;11.03;33.08
10476;BME280;26166;48.264;11.436;2023-04-06T13:43:41;96249.00;;;11.05;33.06
10476;BME280;26166;48.264;11.436;2023-04-06T13:46:41;96248.38;;;11.03;32.43
10476;BME280;26166;48.264;11.436;2023-04-06T13:49:43;96244.91;;;11.02;32.45
10476;BME280;26166;48.264;11.436;2023-04-06T13:52:43;96245.06;;;11.01;32.58
10476;BME280;26166;48.264;11.436;2023-04-06T13:55:43;96238.34;;;10.98;32.37
10476;BME280;26166;48.264;11.436;2023-04-06T13:58:43;96241.31;;;10.95;32.74
10476;BME280;26166;48.264;11.436;2023-04-06T14:01:44;96235.25;;;10.95;32.86
10476;BME280;26166;48.264;11.436;2023-04-06T14:04:44;96239.69;;;10.94;32.77
10476;BME280;26166;48.264;11.436;2023-04-06T14:07:44;96237.88;;;10.95;32.76
10476;BME280;26166;48.264;11.436;2023-04-06T14:10:45;96235.25;;;10.95;32.77
10476;BME280;26166;48.264;11.436;2023-04-06T14:13:45;96236.88;;;10.96;32.59
10476;BME280;26166;48.264;11.436;2023-04-06T14:16:45;96229.00;;;10.96;32.65
10476;BME280;26166;48.264;11.436;2023-04-06T14:19:46;96229.16;;;10.94;32.82
10476;BME280;26166;48.264;11.436;2023-04-06T14:22:46;96230.81;;;10.95;32.41
10476;BME280;26166;48.264;11.436;2023-04-06T14:25:48;96233.25;;;10.97;32.75
10476;BME280;26166;48.264;11.436;2023-04-06T14:28:48;96235.25;;;10.95;32.29
10476;BME280;26166;48.264;11.436;2023-04-06T14:31:49;96240.66;;;10.93;32.62
10476;BME280;26166;48.264;11.436;2023-04-06T14:34:49;96232.13;;;10.91;32.26
10476;BME280;26166;48.264;11.436;2023-04-06T14:37:49;96227.88;;;10.90;32.77
10476;BME280;26166;48.264;11.436;2023-04-06T14:40:49;96227.19;;;10.88;32.97
10476;BME280;26166;48.264;11.436;2023-04-06T14:43:50;96222.75;;;10.89;32.56
10476;BME280;26166;48.264;11.436;2023-04-06T14:46:52;96222.13;;;10.86;32.94
10476;BME280;26166;48.264;11.436;2023-04-06T14:49:52;96217.88;;;10.85;32.89
10476;BME280;26166;48.264;11.436;2023-04-06T14:52:53;96218.19;;;10.82;33.06
10476;BME280;26166;48.264;11.436;2023-04-06T14:55:53;96218.00;;;10.84;32.84
10476;BME280;26166;48.264;11.436;2023-04-06T14:58:53;96210.94;;;10.84;32.60
10476;BME280;26166;48.264;11.436;2023-04-06T15:01:56;96206.69;;;10.83;32.55
10476;BME280;26166;48.264;11.436;2023-04-06T15:04:56;96207.50;;;10.84;32.84
10476;BME280;26166;48.264;11.436;2023-04-06T15:07:56;96218.19;;;10.82;33.04
10476;BME280;26166;48.264;11.436;2023-04-06T15:10:58;96214.75;;;10.82;33.10
10476;BME280;26166;48.264;11.436;2023-04-06T15:13:59;96209.50;;;10.82;32.84
10476;BME280;26166;48.264;11.436;2023-04-06T15:17:00;96213.94;;;10.81;32.98
10476;BME280;26166;48.264;11.436;2023-04-06T15:20:00;96213.94;;;10.81;32.83
10476;BME280;26166;48.264;11.436;2023-04-06T15:23:01;96209.69;;;10.80;33.21
10476;BME280;26166;48.264;11.436;2023-04-06T15:26:01;96214.94;;;10.80;33.33
10476;BME280;26166;48.264;11.436;2023-04-06T15:29:01;96221.97;;;10.80;33.46
10476;BME280;26166;48.264;11.436;2023-04-06T15:32:02;96210.81;;;10.78;33.04
10476;BME280;26166;48.264;11.436;2023-04-06T15:35:08;96205.75;;;10.76;33.21
10476;BME280;26166;48.264;11.436;2023-04-06T15:38:09;96213.63;;;10.76;33.58
10476;BME280;26166;48.264;11.436;2023-04-06T15:41:09;96204.75;;;10.77;33.60
10476;BME280;26166;48.264;11.436;2023-04-06T15:44:10;96206.38;;;10.78;33.34
10476;BME280;26166;48.264;11.436;2023-04-06T15:47:10;96203.75;;;10.78;33.40
10476;BME280;26166;48.264;11.436;2023-04-06T15:50:11;96201.78;;;10.80;33.22
10476;BME280;26166;48.264;11.436;2023-04-06T15:53:11;96201.44;;;10.83;33.48
10476;BME280;26166;48.264;11.436;2023-04-06T15:56:12;96208.00;;;10.88;33.34
10476;BME280;26166;48.264;11.436;2023-04-06T15:59:13;96209.47;;;10.90;33.31